sensor_id;sensor_type;location;lat;lon;timestamp;temperature;humidity
42147;DHT22;27815;43.410;11.852;2024-01-06T00:01:10;13.30;79.90
42147;DHT22;27815;43.410;11.852;2024-01-06T00:05:15;13.20;79.80
42147;DHT22;27815;43.410;11.852;2024-01-06T00:09:19;13.20;79.90
42147;DHT22;27815;43.410;11.852;2024-01-06T00:13:22;13.10;80.10
42147;DHT22;27815;43.410;11.852;2024-01-06T00:17:26;13.10;80.30
42147;DHT22;27815;43.410;11.852;2024-01-06T00:21:29;13.10;80.30
42147;DHT22;27815;43.410;11.852;2024-01-06T00:25:32;13.20;80.30
42147;DHT22;27815;43.410;11.852;2024-01-06T00:29:35;13.20;80.10
42147;DHT22;27815;43.410;11.852;2024-01-06T00:33:39;13.20;80.20
42147;DHT22;27815;43.410;11.852;2024-01-06T00:37:42;13.10;80.10
42147;DHT22;27815;43.410;11.852;2024-01-06T00:41:46;13.10;80.20
42147;DHT22;27815;43.410;11.852;2024-01-06T00:45:50;13.20;80.20
42147;DHT22;27815;43.410;11.852;2024-01-06T00:49:53;13.20;80.20
42147;DHT22;27815;43.410;11.852;2024-01-06T00:53:57;13.10;80.10
42147;DHT22;27815;43.410;11.852;2024-01-06T00:58:01;13.20;80.20
42147;DHT22;27815;43.410;11.852;2024-01-06T01:02:04;13.20;80.30
42147;DHT22;27815;43.410;11.852;2024-01-06T01:06:07;13.10;80.40
42147;DHT22;27815;43.410;11.852;2024-01-06T01:10:12;13.10;80.50
42147;DHT22;27815;43.410;11.852;2024-01-06T01:14:15;13.10;80.50
42147;DHT22;27815;43.410;11.852;2024-01-06T01:18:21;13.10;80.40
42147;DHT22;27815;43.410;11.852;2024-01-06T01:22:25;13.10;80.50
42147;DHT22;27815;43.410;11.852;2024-01-06T01:26:29;13.10;80.50
42147;DHT22;27815;43.410;11.852;2024-01-06T01:30:35;13.10;80.50
42147;DHT22;27815;43.410;11.852;2024-01-06T01:34:38;13.10;80.50
42147;DHT22;27815;43.410;11.852;2024-01-06T01:38:41;13.10;80.60
42147;DHT22;27815;43.410;11.852;2024-01-06T01:42:44;13.10;80.70
42147;DHT22;27815;43.410;11.852;2024-01-06T01:46:48;13.10;80.80
42147;DHT22;27815;43.410;11.852;2024-01-06T01:50:53;13.10;80.90
42147;DHT22;27815;43.410;11.852;2024-01-06T01:54:57;13.10;80.90
42147;DHT22;27815;43.410;11.852;2024-01-06T01:59:03;13.10;81.00
42147;DHT22;27815;43.410;11.852;2024-01-06T02:03:09;13.10;80.90
42147;DHT22;27815;43.410;11.852;2024-01-06T02:07:14;13.20;80.60
42147;DHT22;27815;43.410;11.852;2024-01-06T02:11:17;13.20;80.40
42147;DHT22;27815;43.410;11.852;2024-01-06T02:15:20;13.20;80.00
42147;DHT22;27815;43.410;11.852;2024-01-06T02:19:23;13.20;79.70
42147;DHT22;27815;43.410;11.852;2024-01-06T02:23:27;13.20;79.70
42147;DHT22;27815;43.410;11.852;2024-01-06T02:27:31;13.10;79.80
42147;DHT22;27815;43.410;11.852;2024-01-06T02:31:37;13.10;79.80
42147;DHT22;27815;43.410;11.852;2024-01-06T02:35:41;13.00;79.80
42147;DHT22;27815;43.410;11.852;2024-01-06T02:39:44;13.10;79.30
42147;DHT22;27815;43.410;11.852;2024-01-06T02:43:47;13.10;79.10
42147;DHT22;27815;43.410;11.852;2024-01-06T02:47:51;13.00;78.90
42147;DHT22;27815;43.410;11.852;2024-01-06T02:51:55;13.10;78.90
42147;DHT22;27815;43.410;11.852;2024-01-06T02:55:58;13.00;78.80
42147;DHT22;27815;43.410;11.852;2024-01-06T03:00:02;13.10;78.70
42147;DHT22;27815;43.410;11.852;2024-01-06T03:04:06;13.10;78.50
42147;DHT22;27815;43.410;11.852;2024-01-06T03:08:09;13.10;78.30
42147;DHT22;27815;43.410;11.852;2024-01-06T03:12:12;13.10;78.50
42147;DHT22;27815;43.410;11.852;2024-01-06T03:16:15;13.10;78.80
42147;DHT22;27815;43.410;11.852;2024-01-06T03:20:19;13.10;79.00
42147;DHT22;27815;43.410;11.852;2024-01-06T03:24:24;13.10;79.00
42147;DHT22;27815;43.410;11.852;2024-01-06T03:28:27;13.10;79.10
42147;DHT22;27815;43.410;11.852;2024-01-06T03:32:30;13.10;79.10
42147;DHT22;27815;43.410;11.852;2024-01-06T03:36:33;13.10;79.20
42147;DHT22;27815;43.410;11.852;2024-01-06T03:40:36;13.20;79.30
42147;DHT22;27815;43.410;11.852;2024-01-06T03:44:39;13.20;79.30
42147;DHT22;27815;43.410;11.852;2024-01-06T03:48:42;13.20;79.30
42147;DHT22;27815;43.410;11.852;2024-01-06T03:52:46;13.20;79.30
42147;DHT22;27815;43.410;11.852;2024-01-06T03:56:49;13.20;79.20
42147;DHT22;27815;43.410;11.852;2024-01-06T04:00:52;13.30;79.10
42147;DHT22;27815;43.410;11.852;2024-01-06T04:04:55;13.30;79.00
42147;DHT22;27815;43.410;11.852;2024-01-06T04:09:00;13.30;78.80
42147;DHT22;27815;43.410;11.852;2024-01-06T04:13:03;13.40;78.40
42147;DHT22;27815;43.410;11.852;2024-01-06T04:17:06;13.40;78.20
42147;DHT22;27815;43.410;11.852;2024-01-06T04:21:09;13.40;78.10
42147;DHT22;27815;43.410;11.852;2024-01-06T04:25:15;13.50;78.00
42147;DHT22;27815;43.410;11.852;2024-01-06T04:29:19;13.50;77.80
42147;DHT22;27815;43.410;11.852;2024-01-06T04:33:22;13.50;77.90
42147;DHT22;27815;43.410;11.852;2024-01-06T04:37:25;13.50;78.20
42147;DHT22;27815;43.410;11.852;2024-01-06T04:41:28;13.30;78.70
42147;DHT22;27815;43.410;11.852;2024-01-06T04:45:31;13.30;79.00
42147;DHT22;27815;43.410;11.852;2024-01-06T04:49:34;13.20;79.50
42147;DHT22;27815;43.410;11.852;2024-01-06T04:53:41;13.30;79.70
42147;DHT22;27815;43.410;11.852;2024-01-06T04:57:44;13.20;79.90
42147;DHT22;27815;43.410;11.852;2024-01-06T05:01:47;13.10;80.20
42147;DHT22;27815;43.410;11.852;2024-01-06T05:05:51;13.10;80.40
42147;DHT22;27815;43.410;11.852;2024-01-06T05:09:55;13.10;80.60
42147;DHT22;27815;43.410;11.852;2024-01-06T05:13:58;13.10;80.70
42147;DHT22;27815;43.410;11.852;2024-01-06T05:18:02;13.10;80.90
42147;DHT22;27815;43.410;11.852;2024-01-06T05:22:07;13.10;81.00
42147;DHT22;27815;43.410;11.852;2024-01-06T05:26:10;13.10;81.00
42147;DHT22;27815;43.410;11.852;2024-01-06T05:30:14;13.00;81.10
42147;DHT22;27815;43.410;11.852;2024-01-06T05:34:17;13.00;81.20
42147;DHT22;27815;43.410;11.852;2024-01-06T05:38:20;13.00;81.30
42147;DHT22;27815;43.410;11.852;2024-01-06T05:42:24;13.00;81.30
42147;DHT22;27815;43.410;11.852;2024-01-06T05:46:27;13.00;81.40
42147;DHT22;27815;43.410;11.852;2024-01-06T05:50:30;13.00;81.60
42147;DHT22;27815;43.410;11.852;2024-01-06T05:54:33;13.00;81.60
42147;DHT22;27815;43.410;11.852;2024-01-06T05:58:37;13.00;81.60
42147;DHT22;27815;43.410;11.852;2024-01-06T06:02:42;13.00;81.50
42147;DHT22;27815;43.410;11.852;2024-01-06T06:06:45;13.00;81.60
42147;DHT22;27815;43.410;11.852;2024-01-06T06:10:48;13.00;81.60
42147;DHT22;27815;43.410;11.852;2024-01-06T06:15:13;13.00;81.60
42147;DHT22;27815;43.410;11.852;2024-01-06T06:19:16;13.00;81.70
42147;DHT22;27815;43.410;11.852;2024-01-06T06:23:22;13.00;81.70
42147;DHT22;27815;43.410;11.852;2024-01-06T06:27:26;13.00;81.60
42147;DHT22;27815;43.410;11.852;2024-01-06T06:31:29;13.00;81.40
42147;DHT22;27815;43.410;11.852;2024-01-06T06:35:33;13.00;81.50
42147;DHT22;27815;43.410;11.852;2024-01-06T06:39:36;13.00;81.60
42147;DHT22;27815;43.410;11.852;2024-01-06T06:43:41;13.00;81.70
42147;DHT22;27815;43.410;11.852;2024-01-06T06:47:44;13.00;81.80
42147;DHT22;27815;43.410;11.852;2024-01-06T06:51:48;13.00;81.80
42147;DHT22;27815;43.410;11.852;2024-01-06T06:55:52;13.00;81.80
42147;DHT22;27815;43.410;11.852;2024-01-06T06:59:55;13.00;81.90
42147;DHT22;27815;43.410;11.852;2024-01-06T07:03:58;12.90;82.00
42147;DHT22;27815;43.410;11.852;2024-01-06T07:08:01;12.90;82.10
42147;DHT22;27815;43.410;11.852;2024-01-06T07:12:05;12.90;82.10
42147;DHT22;27815;43.410;11.852;2024-01-06T07:16:08;13.00;82.10
42147;DHT22;27815;43.410;11.852;2024-01-06T07:20:21;13.00;82.00
42147;DHT22;27815;43.410;11.852;2024-01-06T07:24:24;13.00;81.90
42147;DHT22;27815;43.410;11.852;2024-01-06T07:28:27;13.00;81.80
42147;DHT22;27815;43.410;11.852;2024-01-06T07:32:33;13.00;81.40
42147;DHT22;27815;43.410;11.852;2024-01-06T07:36:36;13.00;80.90
42147;DHT22;27815;43.410;11.852;2024-01-06T07:40:41;12.90;80.70
42147;DHT22;27815;43.410;11.852;2024-01-06T07:44:47;12.80;80.60
42147;DHT22;27815;43.410;11.852;2024-01-06T07:48:51;12.70;80.30
42147;DHT22;27815;43.410;11.852;2024-01-06T07:52:54;12.70;80.20
42147;DHT22;27815;43.410;11.852;2024-01-06T07:56:57;12.60;79.90
42147;DHT22;27815;43.410;11.852;2024-01-06T08:01:03;12.60;79.60
42147;DHT22;27815;43.410;11.852;2024-01-06T08:05:07;12.50;79.80
42147;DHT22;27815;43.410;11.852;2024-01-06T08:09:11;12.50;80.00
42147;DHT22;27815;43.410;11.852;2024-01-06T08:13:14;12.50;80.10
42147;DHT22;27815;43.410;11.852;2024-01-06T08:17:17;12.50;80.30
42147;DHT22;27815;43.410;11.852;2024-01-06T08:21:21;12.50;80.70
42147;DHT22;27815;43.410;11.852;2024-01-06T08:25:24;12.60;80.80
42147;DHT22;27815;43.410;11.852;2024-01-06T08:29:27;12.70;80.70
42147;DHT22;27815;43.410;11.852;2024-01-06T08:33:32;12.80;80.70
42147;DHT22;27815;43.410;11.852;2024-01-06T08:37:36;12.80;80.40
42147;DHT22;27815;43.410;11.852;2024-01-06T08:41:39;12.90;79.90
42147;DHT22;27815;43.410;11.852;2024-01-06T08:45:43;13.00;79.70
42147;DHT22;27815;43.410;11.852;2024-01-06T08:49:48;13.00;79.60
42147;DHT22;27815;43.410;11.852;2024-01-06T08:53:55;13.10;79.40
42147;DHT22;27815;43.410;11.852;2024-01-06T08:57:59;13.10;79.40
42147;DHT22;27815;43.410;11.852;2024-01-06T09:02:04;13.10;79.10
42147;DHT22;27815;43.410;11.852;2024-01-06T09:06:08;13.20;79.00
42147;DHT22;27815;43.410;11.852;2024-01-06T09:10:17;13.30;78.80
42147;DHT22;27815;43.410;11.852;2024-01-06T09:14:22;13.40;78.40
42147;DHT22;27815;43.410;11.852;2024-01-06T09:18:26;13.50;77.70
42147;DHT22;27815;43.410;11.852;2024-01-06T09:22:29;13.60;77.00
42147;DHT22;27815;43.410;11.852;2024-01-06T09:26:32;13.60;77.00
42147;DHT22;27815;43.410;11.852;2024-01-06T09:30:39;13.60;76.80
42147;DHT22;27815;43.410;11.852;2024-01-06T09:34:42;13.50;76.50
42147;DHT22;27815;43.410;11.852;2024-01-06T09:38:52;13.50;76.30
42147;DHT22;27815;43.410;11.852;2024-01-06T09:42:58;13.50;76.50
42147;DHT22;27815;43.410;11.852;2024-01-06T09:47:04;13.50;76.40
42147;DHT22;27815;43.410;11.852;2024-01-06T09:51:10;13.40;76.50
42147;DHT22;27815;43.410;11.852;2024-01-06T09:55:15;13.40;76.60
42147;DHT22;27815;43.410;11.852;2024-01-06T09:59:19;13.40;76.80
42147;DHT22;27815;43.410;11.852;2024-01-06T10:03:22;13.50;77.00
42147;DHT22;27815;43.410;11.852;2024-01-06T10:07:30;13.50;77.00
42147;DHT22;27815;43.410;11.852;2024-01-06T10:11:35;13.50;76.80
42147;DHT22;27815;43.410;11.852;2024-01-06T10:15:40;13.40;76.80
42147;DHT22;27815;43.410;11.852;2024-01-06T10:19:47;13.40;76.70
42147;DHT22;27815;43.410;11.852;2024-01-06T10:23:54;13.30;76.80
42147;DHT22;27815;43.410;11.852;2024-01-06T10:28:00;13.30;77.00
42147;DHT22;27815;43.410;11.852;2024-01-06T10:32:04;13.20;77.60
42147;DHT22;27815;43.410;11.852;2024-01-06T10:36:08;13.10;78.00
42147;DHT22;27815;43.410;11.852;2024-01-06T10:40:14;13.10;78.40
42147;DHT22;27815;43.410;11.852;2024-01-06T10:44:21;13.00;78.60
42147;DHT22;27815;43.410;11.852;2024-01-06T10:48:25;13.00;78.90
42147;DHT22;27815;43.410;11.852;2024-01-06T10:52:30;13.00;79.10
42147;DHT22;27815;43.410;11.852;2024-01-06T10:56:37;13.00;79.20
42147;DHT22;27815;43.410;11.852;2024-01-06T11:00:47;13.00;79.30
42147;DHT22;27815;43.410;11.852;2024-01-06T11:04:57;13.00;79.30
42147;DHT22;27815;43.410;11.852;2024-01-06T11:09:19;12.90;79.30
42147;DHT22;27815;43.410;11.852;2024-01-06T11:13:29;13.00;79.20
42147;DHT22;27815;43.410;11.852;2024-01-06T11:18:08;13.00;79.40
42147;DHT22;27815;43.410;11.852;2024-01-06T11:26:26;13.00;79.40
42147;DHT22;27815;43.410;11.852;2024-01-06T11:30:29;13.00;79.30
42147;DHT22;27815;43.410;11.852;2024-01-06T11:34:36;13.10;79.40
42147;DHT22;27815;43.410;11.852;2024-01-06T11:38:40;13.10;79.40
42147;DHT22;27815;43.410;11.852;2024-01-06T11:42:45;13.10;79.40
42147;DHT22;27815;43.410;11.852;2024-01-06T11:46:48;13.10;79.40
42147;DHT22;27815;43.410;11.852;2024-01-06T11:50:55;13.00;79.50
42147;DHT22;27815;43.410;11.852;2024-01-06T11:54:59;13.00;79.60
42147;DHT22;27815;43.410;11.852;2024-01-06T11:59:04;13.10;79.90
42147;DHT22;27815;43.410;11.852;2024-01-06T12:03:07;13.00;80.00
42147;DHT22;27815;43.410;11.852;2024-01-06T12:07:10;13.00;79.90
42147;DHT22;27815;43.410;11.852;2024-01-06T12:11:17;12.90;80.00
42147;DHT22;27815;43.410;11.852;2024-01-06T12:15:21;12.80;80.20
42147;DHT22;27815;43.410;11.852;2024-01-06T12:19:27;12.70;80.50
42147;DHT22;27815;43.410;11.852;2024-01-06T12:23:33;12.70;80.60
42147;DHT22;27815;43.410;11.852;2024-01-06T12:27:43;12.70;80.70
42147;DHT22;27815;43.410;11.852;2024-01-06T12:31:54;12.80;80.60
42147;DHT22;27815;43.410;11.852;2024-01-06T12:35:58;12.80;80.40
42147;DHT22;27815;43.410;11.852;2024-01-06T12:40:11;12.80;80.20
42147;DHT22;27815;43.410;11.852;2024-01-06T12:44:17;12.80;79.90
42147;DHT22;27815;43.410;11.852;2024-01-06T12:48:25;12.80;79.80
42147;DHT22;27815;43.410;11.852;2024-01-06T12:52:29;12.80;79.70
42147;DHT22;27815;43.410;11.852;2024-01-06T12:56:31;12.80;79.40
42147;DHT22;27815;43.410;11.852;2024-01-06T13:00:35;12.90;79.50
42147;DHT22;27815;43.410;11.852;2024-01-06T13:04:39;13.00;79.20
42147;DHT22;27815;43.410;11.852;2024-01-06T13:08:42;13.10;78.80
42147;DHT22;27815;43.410;11.852;2024-01-06T13:13:10;13.20;78.40
42147;DHT22;27815;43.410;11.852;2024-01-06T13:17:13;13.30;78.30
42147;DHT22;27815;43.410;11.852;2024-01-06T13:21:18;13.40;78.10
42147;DHT22;27815;43.410;11.852;2024-01-06T13:25:21;13.50;78.00
42147;DHT22;27815;43.410;11.852;2024-01-06T13:29:25;13.50;77.80
42147;DHT22;27815;43.410;11.852;2024-01-06T13:33:27;13.50;77.40
42147;DHT22;27815;43.410;11.852;2024-01-06T13:37:32;13.60;77.20
42147;DHT22;27815;43.410;11.852;2024-01-06T13:41:35;13.60;77.00
42147;DHT22;27815;43.410;11.852;2024-01-06T13:45:38;13.60;76.60
42147;DHT22;27815;43.410;11.852;2024-01-06T13:49:44;13.60;76.20
42147;DHT22;27815;43.410;11.852;2024-01-06T13:53:47;13.60;75.70
42147;DHT22;27815;43.410;11.852;2024-01-06T13:57:51;13.60;75.70
42147;DHT22;27815;43.410;11.852;2024-01-06T14:01:54;13.70;75.30
42147;DHT22;27815;43.410;11.852;2024-01-06T14:05:57;13.70;75.00
42147;DHT22;27815;43.410;11.852;2024-01-06T14:10:04;13.70;74.80
42147;DHT22;27815;43.410;11.852;2024-01-06T14:14:08;13.70;74.50
42147;DHT22;27815;43.410;11.852;2024-01-06T14:18:12;13.70;74.60
42147;DHT22;27815;43.410;11.852;2024-01-06T14:22:18;13.70;74.60
42147;DHT22;27815;43.410;11.852;2024-01-06T14:26:21;13.60;74.30
42147;DHT22;27815;43.410;11.852;2024-01-06T14:30:27;13.60;74.40
42147;DHT22;27815;43.410;11.852;2024-01-06T14:34:31;13.60;74.40
42147;DHT22;27815;43.410;11.852;2024-01-06T14:38:34;13.50;74.50
42147;DHT22;27815;43.410;11.852;2024-01-06T14:42:37;13.50;74.30
42147;DHT22;27815;43.410;11.852;2024-01-06T14:46:42;13.50;74.10
42147;DHT22;27815;43.410;11.852;2024-01-06T14:50:46;13.50;74.10
42147;DHT22;27815;43.410;11.852;2024-01-06T14:54:49;13.40;73.80
42147;DHT22;27815;43.410;11.852;2024-01-06T14:58:53;13.40;73.80
42147;DHT22;27815;43.410;11.852;2024-01-06T15:02:59;13.30;73.70
42147;DHT22;27815;43.410;11.852;2024-01-06T15:07:03;13.30;73.30
42147;DHT22;27815;43.410;11.852;2024-01-06T15:11:08;13.30;73.20
42147;DHT22;27815;43.410;11.852;2024-01-06T15:15:14;13.30;73.00
42147;DHT22;27815;43.410;11.852;2024-01-06T15:19:45;13.30;72.90
42147;DHT22;27815;43.410;11.852;2024-01-06T15:24:04;13.30;72.70
42147;DHT22;27815;43.410;11.852;2024-01-06T15:28:08;13.30;72.90
42147;DHT22;27815;43.410;11.852;2024-01-06T15:32:12;13.20;72.90
42147;DHT22;27815;43.410;11.852;2024-01-06T15:36:19;13.20;73.00
42147;DHT22;27815;43.410;11.852;2024-01-06T15:40:26;13.20;73.00
42147;DHT22;27815;43.410;11.852;2024-01-06T15:44:30;13.20;73.00
42147;DHT22;27815;43.410;11.852;2024-01-06T15:48:37;13.20;73.10
42147;DHT22;27815;43.410;11.852;2024-01-06T15:52:41;13.10;73.10
42147;DHT22;27815;43.410;11.852;2024-01-06T15:56:45;13.10;73.00
42147;DHT22;27815;43.410;11.852;2024-01-06T16:00:53;13.10;72.90
42147;DHT22;27815;43.410;11.852;2024-01-06T16:04:57;13.10;73.10
42147;DHT22;27815;43.410;11.852;2024-01-06T16:09:01;13.10;73.10
42147;DHT22;27815;43.410;11.852;2024-01-06T16:13:04;13.10;73.30
42147;DHT22;27815;43.410;11.852;2024-01-06T16:17:07;13.00;73.50
42147;DHT22;27815;43.410;11.852;2024-01-06T16:21:21;13.00;73.50
42147;DHT22;27815;43.410;11.852;2024-01-06T16:25:25;12.90;73.70
42147;DHT22;27815;43.410;11.852;2024-01-06T16:29:28;12.80;73.90
42147;DHT22;27815;43.410;11.852;2024-01-06T16:33:34;12.80;74.00
42147;DHT22;27815;43.410;11.852;2024-01-06T16:37:37;12.70;74.20
42147;DHT22;27815;43.410;11.852;2024-01-06T16:41:40;12.70;74.30
42147;DHT22;27815;43.410;11.852;2024-01-06T16:45:51;12.70;74.40
42147;DHT22;27815;43.410;11.852;2024-01-06T16:50:25;12.60;74.50
42147;DHT22;27815;43.410;11.852;2024-01-06T16:54:28;12.60;74.50
42147;DHT22;27815;43.410;11.852;2024-01-06T16:58:32;12.50;74.60
42147;DHT22;27815;43.410;11.852;2024-01-06T17:02:38;12.50;74.70
42147;DHT22;27815;43.410;11.852;2024-01-06T17:06:44;12.50;74.70
42147;DHT22;27815;43.410;11.852;2024-01-06T17:10:47;12.50;74.80
42147;DHT22;27815;43.410;11.852;2024-01-06T17:14:50;12.40;74.90
42147;DHT22;27815;43.410;11.852;2024-01-06T17:18:55;12.40;75.00
42147;DHT22;27815;43.410;11.852;2024-01-06T17:23:04;12.30;75.10
42147;DHT22;27815;43.410;11.852;2024-01-06T17:27:10;12.30;75.20
42147;DHT22;27815;43.410;11.852;2024-01-06T17:31:17;12.30;75.20
42147;DHT22;27815;43.410;11.852;2024-01-06T17:35:21;12.40;75.30
42147;DHT22;27815;43.410;11.852;2024-01-06T17:39:24;12.50;75.30
42147;DHT22;27815;43.410;11.852;2024-01-06T17:43:27;12.50;75.30
42147;DHT22;27815;43.410;11.852;2024-01-06T17:47:32;12.60;75.20
42147;DHT22;27815;43.410;11.852;2024-01-06T17:51:35;12.60;75.10
42147;DHT22;27815;43.410;11.852;2024-01-06T17:55:42;12.50;75.10
42147;DHT22;27815;43.410;11.852;2024-01-06T17:59:48;12.50;75.10
42147;DHT22;27815;43.410;11.852;2024-01-06T18:03:53;12.50;75.20
42147;DHT22;27815;43.410;11.852;2024-01-06T18:07:58;12.50;75.20
42147;DHT22;27815;43.410;11.852;2024-01-06T18:12:02;12.60;75.20
42147;DHT22;27815;43.410;11.852;2024-01-06T18:16:05;12.50;75.20
42147;DHT22;27815;43.410;11.852;2024-01-06T18:20:10;12.60;75.20
42147;DHT22;27815;43.410;11.852;2024-01-06T18:24:13;12.70;75.20
42147;DHT22;27815;43.410;11.852;2024-01-06T18:28:16;12.70;75.20
42147;DHT22;27815;43.410;11.852;2024-01-06T18:32:25;12.70;75.20
42147;DHT22;27815;43.410;11.852;2024-01-06T18:36:29;12.80;75.20
42147;DHT22;27815;43.410;11.852;2024-01-06T18:40:32;12.80;75.20
42147;DHT22;27815;43.410;11.852;2024-01-06T18:44:35;12.80;75.10
42147;DHT22;27815;43.410;11.852;2024-01-06T18:48:41;12.80;75.00
42147;DHT22;27815;43.410;11.852;2024-01-06T18:52:44;12.80;74.90
42147;DHT22;27815;43.410;11.852;2024-01-06T18:56:48;12.80;74.80
42147;DHT22;27815;43.410;11.852;2024-01-06T19:00:51;13.00;74.70
42147;DHT22;27815;43.410;11.852;2024-01-06T19:04:55;12.90;74.60
42147;DHT22;27815;43.410;11.852;2024-01-06T19:08:58;12.90;74.60
42147;DHT22;27815;43.410;11.852;2024-01-06T19:13:01;13.00;74.50
42147;DHT22;27815;43.410;11.852;2024-01-06T19:17:09;13.00;74.50
42147;DHT22;27815;43.410;11.852;2024-01-06T19:21:13;13.00;74.40
42147;DHT22;27815;43.410;11.852;2024-01-06T19:25:16;12.90;74.30
42147;DHT22;27815;43.410;11.852;2024-01-06T19:29:20;12.70;74.60
42147;DHT22;27815;43.410;11.852;2024-01-06T19:33:23;12.60;74.90
42147;DHT22;27815;43.410;11.852;2024-01-06T19:37:27;12.50;74.90
42147;DHT22;27815;43.410;11.852;2024-01-06T19:41:30;12.50;75.00
42147;DHT22;27815;43.410;11.852;2024-01-06T19:45:39;12.50;75.20
42147;DHT22;27815;43.410;11.852;2024-01-06T19:49:42;12.40;75.20
42147;DHT22;27815;43.410;11.852;2024-01-06T19:53:49;12.40;75.30
42147;DHT22;27815;43.410;11.852;2024-01-06T19:57:54;12.30;75.40
42147;DHT22;27815;43.410;11.852;2024-01-06T20:01:57;12.20;75.60
42147;DHT22;27815;43.410;11.852;2024-01-06T20:06:07;12.10;75.80
42147;DHT22;27815;43.410;11.852;2024-01-06T20:10:14;12.10;75.90
42147;DHT22;27815;43.410;11.852;2024-01-06T20:14:21;12.10;76.00
42147;DHT22;27815;43.410;11.852;2024-01-06T20:18:25;12.00;76.00
42147;DHT22;27815;43.410;11.852;2024-01-06T20:22:30;12.00;76.20
42147;DHT22;27815;43.410;11.852;2024-01-06T20:26:34;11.90;76.50
42147;DHT22;27815;43.410;11.852;2024-01-06T20:30:46;11.80;76.70
42147;DHT22;27815;43.410;11.852;2024-01-06T20:34:52;11.80;77.20
42147;DHT22;27815;43.410;11.852;2024-01-06T20:38:58;11.80;77.30
42147;DHT22;27815;43.410;11.852;2024-01-06T20:43:06;11.70;77.30
42147;DHT22;27815;43.410;11.852;2024-01-06T20:47:10;11.80;77.30
42147;DHT22;27815;43.410;11.852;2024-01-06T20:51:17;11.70;77.50
42147;DHT22;27815;43.410;11.852;2024-01-06T20:55:54;11.60;77.80
42147;DHT22;27815;43.410;11.852;2024-01-06T21:05:33;11.60;77.90
42147;DHT22;27815;43.410;11.852;2024-01-06T21:09:41;11.60;77.90
42147;DHT22;27815;43.410;11.852;2024-01-06T21:13:53;11.70;77.80
42147;DHT22;27815;43.410;11.852;2024-01-06T21:18:14;11.70;77.80
42147;DHT22;27815;43.410;11.852;2024-01-06T21:22:22;11.80;77.80
42147;DHT22;27815;43.410;11.852;2024-01-06T21:33:24;11.80;77.90
42147;DHT22;27815;43.410;11.852;2024-01-06T21:39:56;11.70;77.90
42147;DHT22;27815;43.410;11.852;2024-01-06T21:51:23;11.60;78.20
42147;DHT22;27815;43.410;11.852;2024-01-06T21:56:00;11.50;78.30
42147;DHT22;27815;43.410;11.852;2024-01-06T22:00:27;11.50;78.20
42147;DHT22;27815;43.410;11.852;2024-01-06T22:05:39;11.60;78.30
42147;DHT22;27815;43.410;11.852;2024-01-06T22:11:19;11.50;78.30
42147;DHT22;27815;43.410;11.852;2024-01-06T22:17:23;11.50;78.50
42147;DHT22;27815;43.410;11.852;2024-01-06T22:24:02;11.30;79.00
42147;DHT22;27815;43.410;11.852;2024-01-06T22:30:21;11.10;79.50
42147;DHT22;27815;43.410;11.852;2024-01-06T22:35:42;11.00;80.00
42147;DHT22;27815;43.410;11.852;2024-01-06T22:41:29;10.90;80.30
42147;DHT22;27815;43.410;11.852;2024-01-06T23:09:49;10.60;81.30
42147;DHT22;27815;43.410;11.852;2024-01-06T23:15:18;10.60;81.40
42147;DHT22;27815;43.410;11.852;2024-01-06T23:27:26;10.50;81.40
42147;DHT22;27815;43.410;11.852;2024-01-06T23:32:10;10.50;81.40
42147;DHT22;27815;43.410;11.852;2024-01-06T23:37:07;10.40;81.60
42147;DHT22;27815;43.410;11.852;2024-01-06T23:42:20;10.40;81.60
42147;DHT22;27815;43.410;11.852;2024-01-06T23:47:48;10.40;81.60
42147;DHT22;27815;43.410;11.852;2024-01-06T23:53:43;10.50;81.60
42147;DHT22;27815;43.410;11.852;2024-01-06T23:59:40;10.40;81.60
